createdAt,value
2023-01-23T00:01:18.841Z,103545.00
2023-01-23T00:06:16.524Z,103548.53
2023-01-23T00:11:17.686Z,103549.81
2023-01-23T00:16:18.125Z,103555.50
2023-01-23T00:21:17.415Z,103556.97
2023-01-23T00:26:17.870Z,103566.03
2023-01-23T00:31:25.436Z,103563.56
2023-01-23T00:36:21.996Z,103556.09
2023-01-23T00:41:18.596Z,103565.25
2023-01-23T00:46:15.042Z,103571.44
2023-01-23T00:51:11.653Z,103572.22
2023-01-23T00:56:09.018Z,103568.84
2023-01-23T01:01:05.448Z,103566.44
2023-01-23T01:06:02.333Z,103575.81
2023-01-23T01:10:59.016Z,103580.97
2023-01-23T01:15:55.494Z,103577.25
2023-01-23T01:20:51.930Z,103584.97
2023-01-23T01:25:48.327Z,103588.13
2023-01-23T01:30:44.753Z,103599.00
2023-01-23T01:35:41.440Z,103599.50
2023-01-23T01:40:38.007Z,103599.06
2023-01-23T01:45:56.016Z,103614.81
2023-01-23T01:50:53.231Z,103613.84
2023-01-23T01:55:49.959Z,103617.09
2023-01-23T02:00:46.427Z,103619.53
2023-01-23T02:05:47.313Z,103622.66
2023-01-23T02:10:44.099Z,103622.91
2023-01-23T02:15:41.334Z,103627.78
2023-01-23T02:20:38.013Z,103635.81
2023-01-23T02:25:44.164Z,103630.44
2023-01-23T02:30:42.588Z,103633.09
2023-01-23T02:35:39.352Z,103629.84
2023-01-23T02:40:39.847Z,103630.25
2023-01-23T02:45:36.461Z,103619.06
2023-01-23T02:50:32.888Z,103618.47
2023-01-23T02:55:33.496Z,103610.03
2023-01-23T03:00:30.098Z,103612.34
2023-01-23T03:05:26.844Z,103616.44
2023-01-23T03:10:23.210Z,103614.69
2023-01-23T03:15:19.622Z,103607.91
2023-01-23T03:20:20.119Z,103610.34
2023-01-23T03:25:17.013Z,103624.66
2023-01-23T03:30:16.004Z,103626.31
2023-01-23T03:35:16.670Z,103627.72
2023-01-23T03:40:37.108Z,103632.75
2023-01-23T03:45:33.873Z,103635.81
2023-01-23T03:50:30.427Z,103641.75
2023-01-23T03:55:26.799Z,103648.81
2023-01-23T04:00:23.387Z,103652.16
2023-01-23T04:05:19.843Z,103653.13
2023-01-23T04:10:16.390Z,103651.25
2023-01-23T04:15:12.823Z,103651.25
2023-01-23T04:20:10.006Z,103652.56
2023-01-23T04:25:07.088Z,103658.91
2023-01-23T04:30:04.023Z,103664.94
2023-01-23T04:35:00.542Z,103672.28
2023-01-23T04:39:57.054Z,103682.81
2023-01-23T04:44:53.425Z,103676.75
2023-01-23T04:49:50.180Z,103678.25
2023-01-23T04:54:46.542Z,103675.34
2023-01-23T04:59:42.963Z,103685.59
2023-01-23T05:04:39.335Z,103680.69
2023-01-23T05:09:35.790Z,103684.56
2023-01-23T05:14:32.266Z,103689.69
2023-01-23T05:19:28.724Z,103695.75
2023-01-23T05:24:25.299Z,103701.13
2023-01-23T05:29:21.864Z,103708.28
2023-01-23T05:34:18.259Z,103713.22
2023-01-23T05:39:14.701Z,103716.56
2023-01-23T05:44:11.235Z,103719.91
2023-01-23T05:49:07.691Z,103724.97
2023-01-23T05:54:04.332Z,103734.56
2023-01-23T05:59:00.764Z,103730.38
2023-01-23T06:03:57.213Z,103729.59
2023-01-23T06:08:53.618Z,103737.03
2023-01-23T06:13:50.039Z,103741.59
2023-01-23T06:18:46.425Z,103737.41
2023-01-23T06:23:42.857Z,103743.31
2023-01-23T06:28:39.668Z,103756.59
2023-01-23T06:33:38.902Z,103756.81
2023-01-23T06:38:35.583Z,103763.69
2023-01-23T06:43:32.025Z,103747.47
2023-01-23T06:48:28.443Z,103757.91
2023-01-23T06:53:24.848Z,103757.44
2023-01-23T06:58:21.364Z,103769.44
2023-01-23T07:03:17.844Z,103775.59
2023-01-23T07:08:14.443Z,103783.59
2023-01-23T07:13:11.582Z,103786.94
2023-01-23T07:18:09.396Z,103800.16
2023-01-23T07:23:05.873Z,103790.69
2023-01-23T07:28:02.621Z,103797.38
2023-01-23T07:32:59.368Z,103797.75
2023-01-23T07:37:56.262Z,103798.56
2023-01-23T07:42:52.705Z,103800.38
2023-01-23T07:47:49.110Z,103803.41
2023-01-23T07:52:45.588Z,103810.13
2023-01-23T07:57:42.491Z,103822.81
2023-01-23T08:02:39.110Z,103825.13
2023-01-23T08:07:35.587Z,103834.44
2023-01-23T08:12:32.058Z,103834.06
2023-01-23T08:17:28.439Z,103847.56
2023-01-23T08:22:24.891Z,103840.94
2023-01-23T08:27:21.486Z,103841.50
2023-01-23T08:32:17.867Z,103850.25
2023-01-23T08:37:14.256Z,103860.88
2023-01-23T08:42:10.675Z,103857.91
2023-01-23T08:47:07.137Z,103867.22
2023-01-23T08:52:05.757Z,103867.31
2023-01-23T08:57:02.833Z,103878.78
2023-01-23T09:01:59.251Z,103872.31
2023-01-23T09:06:55.652Z,103884.38
2023-01-23T09:11:52.092Z,103882.56
2023-01-23T09:16:48.775Z,103893.47
2023-01-23T09:21:45.319Z,103887.34
2023-01-23T09:26:43.790Z,103876.72
2023-01-23T09:31:40.288Z,103873.78
2023-01-23T09:36:43.375Z,103874.00
2023-01-23T09:41:41.020Z,103877.34
2023-01-23T09:46:49.895Z,103870.00
2023-01-23T09:52:05.481Z,103875.94
2023-01-23T09:57:11.453Z,103883.94
2023-01-23T10:02:20.098Z,103880.97
2023-01-23T10:07:22.725Z,103873.25
2023-01-23T10:12:40.682Z,103858.34
2023-01-23T10:17:51.600Z,103850.22
2023-01-23T10:23:23.460Z,103856.53
2023-01-23T10:28:40.163Z,103846.03
2023-01-23T10:33:45.508Z,103843.94
2023-01-23T10:38:49.532Z,103857.44
2023-01-23T10:43:51.523Z,103855.88
2023-01-23T10:48:50.705Z,103855.78
2023-01-23T10:54:06.205Z,103855.34
2023-01-23T10:59:05.324Z,103860.31
2023-01-23T11:04:18.244Z,103864.88
2023-01-23T11:09:23.672Z,103865.47
2023-01-23T11:14:22.606Z,103869.81
2023-01-23T11:19:22.381Z,103863.59
2023-01-23T11:24:27.710Z,103854.25
2023-01-23T11:29:42.437Z,103862.97
2023-01-23T11:34:45.589Z,103876.66
2023-01-23T11:39:53.618Z,103866.25
2023-01-23T11:44:51.106Z,103865.03
2023-01-23T11:50:14.188Z,103874.09
2023-01-23T11:55:38.839Z,103872.66
2023-01-23T12:01:03.396Z,103876.91
2023-01-23T12:12:06.704Z,103880.19
2023-01-23T12:17:28.105Z,103876.91
2023-01-23T12:22:34.564Z,103876.66
2023-01-23T12:27:44.979Z,103874.28
2023-01-23T12:33:09.191Z,103880.47
2023-01-23T12:38:34.526Z,103869.44
2023-01-23T12:44:06.635Z,103881.34
2023-01-23T12:49:38.787Z,103876.25
2023-01-23T12:54:42.571Z,103876.41
2023-01-23T13:00:05.221Z,103876.66
2023-01-23T13:05:21.551Z,103872.28
2023-01-23T13:10:23.877Z,103861.06
2023-01-23T13:15:38.780Z,103873.59
2023-01-23T13:21:12.149Z,103875.72
2023-01-23T13:26:22.814Z,103884.72
2023-01-23T13:31:40.279Z,103886.19
2023-01-23T13:36:37.736Z,103884.66
2023-01-23T13:41:34.248Z,103886.00
2023-01-23T14:24:23.080Z,103891.03
2023-01-23T14:29:24.247Z,103884.16
2023-01-23T14:34:22.974Z,103889.22
2023-01-23T14:39:23.083Z,103897.03
2023-01-23T14:44:23.519Z,103891.22
2023-01-23T14:49:29.654Z,103897.22
2023-01-23T14:54:31.803Z,103893.41
2023-01-23T14:59:41.422Z,103895.94
2023-01-23T15:04:37.897Z,103893.81
2023-01-23T15:09:41.401Z,103880.91
2023-01-23T15:14:39.705Z,103876.22
2023-01-23T15:19:37.781Z,103871.25
2023-01-23T15:24:34.351Z,103863.25
2023-01-23T15:29:31.670Z,103863.53
2023-01-23T15:34:34.172Z,103874.97
2023-01-23T15:39:49.246Z,103856.25
2023-01-23T15:44:45.732Z,103854.00
2023-01-23T15:49:42.264Z,103863.25
2023-01-23T15:54:38.985Z,103869.19
2023-01-23T15:59:36.721Z,103881.44
2023-01-23T16:04:33.623Z,103884.72
2023-01-23T16:09:33.578Z,103886.44
2023-01-23T16:14:30.091Z,103890.44
2023-01-23T16:19:26.655Z,103887.94
2023-01-23T16:24:24.092Z,103884.56
2023-01-23T16:29:32.275Z,103900.22
2023-01-23T16:34:29.019Z,103909.00
2023-01-23T16:39:27.314Z,103902.28
2023-01-23T16:44:24.056Z,103906.69
2023-01-23T16:49:21.050Z,103915.16
2023-01-23T16:54:21.272Z,103911.06
2023-01-23T16:59:25.985Z,103915.56
2023-01-23T17:04:22.477Z,103924.63
2023-01-23T17:09:19.172Z,103929.22
2023-01-23T17:14:22.529Z,103930.59
2023-01-23T17:19:30.760Z,103933.41
2023-01-23T17:24:27.626Z,103942.81
2023-01-23T17:29:24.600Z,103943.75
2023-01-23T17:34:24.573Z,103951.84
2023-01-23T17:39:21.441Z,103951.97
2023-01-23T17:44:17.925Z,103942.44
2023-01-23T17:49:30.683Z,103952.50
2023-01-23T17:54:27.390Z,103963.72
2023-01-23T17:59:23.965Z,103967.72
2023-01-23T18:04:22.475Z,103966.69
2023-01-23T18:09:19.122Z,103960.44
2023-01-23T18:14:30.161Z,103965.78
2023-01-23T18:19:27.534Z,103971.56
2023-01-23T18:24:30.446Z,103975.09
2023-01-23T18:29:45.727Z,103973.03
2023-01-23T18:35:04.292Z,103973.63
2023-01-23T18:40:12.810Z,103976.97
2023-01-23T18:45:23.555Z,103981.72
2023-01-23T18:50:25.208Z,103979.03
2023-01-23T18:55:52.696Z,103988.34
2023-01-23T19:00:53.856Z,103985.16
2023-01-23T19:05:50.582Z,103989.84
2023-01-23T19:10:49.282Z,103995.59
2023-01-23T19:15:57.737Z,103994.78
2023-01-23T19:21:14.430Z,103987.78
2023-01-23T19:26:15.003Z,103991.22
2023-01-23T19:31:23.281Z,103995.25
2023-01-23T19:36:21.628Z,103990.19
2023-01-23T19:41:24.060Z,103991.88
2023-01-23T19:46:22.337Z,103981.38
2023-01-23T19:51:21.564Z,103985.56
2023-01-23T19:56:18.182Z,103981.81
2023-01-23T20:01:34.171Z,103978.19
2023-01-23T20:06:31.021Z,103983.13
2023-01-23T20:11:27.447Z,103983.50
2023-01-23T20:16:24.965Z,103991.31
2023-01-23T20:21:23.782Z,104001.41
2023-01-23T20:26:21.265Z,103994.41
2023-01-23T20:31:17.907Z,103998.03
2023-01-23T20:36:15.812Z,103995.06
2023-01-23T20:41:16.013Z,103991.97
2023-01-23T20:46:14.062Z,103990.56
2023-01-23T20:51:11.588Z,103995.34
2023-01-23T20:56:19.815Z,103989.25
2023-01-23T21:01:18.323Z,103992.81
2023-01-23T21:06:15.350Z,103999.44
2023-01-23T21:11:19.956Z,104003.81
2023-01-23T21:16:17.542Z,104011.28
2023-01-23T21:21:16.824Z,104009.69
2023-01-23T21:26:13.278Z,104019.13
2023-01-23T21:31:16.041Z,104018.91
2023-01-23T21:36:14.029Z,104016.31
2023-01-23T21:41:10.413Z,104017.63
2023-01-23T21:46:07.753Z,104019.47
2023-01-23T21:51:14.087Z,104025.25
2023-01-23T21:56:13.065Z,104035.78
2023-01-23T22:01:33.554Z,104027.31
2023-01-23T22:06:31.412Z,104040.81
2023-01-23T22:11:28.257Z,104037.19
2023-01-23T22:16:35.971Z,104044.56
2023-01-23T22:21:41.312Z,104052.66
2023-01-23T22:26:38.062Z,104050.63
2023-01-23T22:31:34.692Z,104044.34
2023-01-23T22:36:31.149Z,104050.97
2023-01-23T22:41:28.504Z,104039.88
2023-01-23T22:46:25.091Z,104027.31
2023-01-23T22:51:24.851Z,104028.69
2023-01-23T22:56:22.563Z,104022.28
2023-01-23T23:01:19.661Z,104019.66
2023-01-23T23:06:17.114Z,104019.56
2023-01-23T23:11:27.980Z,104020.03
2023-01-23T23:16:27.114Z,104023.84
2023-01-23T23:21:25.516Z,104027.47
2023-01-23T23:26:21.950Z,104031.22
2023-01-23T23:31:19.097Z,104032.50
2023-01-23T23:36:15.644Z,104032.81
2023-01-23T23:41:14.894Z,104027.09
2023-01-23T23:46:12.914Z,104032.31
2023-01-23T23:51:12.855Z,104032.88
2023-01-23T23:56:13.904Z,104033.25
